createdAt,value
2018-08-07T00:00:33.458Z,18.13
2018-08-07T00:03:02.189Z,17.73
2018-08-07T00:05:30.918Z,18.07
2018-08-07T00:07:59.654Z,17.30
2018-08-07T00:10:28.349Z,17.53
2018-08-07T00:12:57.077Z,18.10
2018-08-07T00:15:27.562Z,19.53
2018-08-07T00:17:56.308Z,18.70
2018-08-07T00:20:25.057Z,18.30
2018-08-07T00:22:53.766Z,18.87
2018-08-07T00:25:22.470Z,21.40
2018-08-07T00:27:51.200Z,19.43
2018-08-07T00:30:19.893Z,19.70
2018-08-07T00:32:48.622Z,19.40
2018-08-07T00:35:18.717Z,17.50
2018-08-07T00:37:47.842Z,18.63
2018-08-07T00:40:17.632Z,18.13
2018-08-07T00:42:46.835Z,20.77
2018-08-07T00:45:21.327Z,18.00
2018-08-07T00:47:50.550Z,17.20
2018-08-07T00:50:20.905Z,18.23
2018-08-07T00:52:50.587Z,16.57
2018-08-07T00:55:19.959Z,18.80
2018-08-07T00:57:49.261Z,17.37
2018-08-07T01:00:18.013Z,18.07
2018-08-07T01:02:46.748Z,16.63
2018-08-07T01:05:17.380Z,17.10
2018-08-07T01:07:46.092Z,17.00
2018-08-07T01:10:16.500Z,17.17
2018-08-07T01:12:45.200Z,18.33
2018-08-07T01:15:16.190Z,18.20
2018-08-07T01:17:45.442Z,19.03
2018-08-07T01:20:18.540Z,17.90
2018-08-07T01:22:47.245Z,18.90
2018-08-07T01:25:20.988Z,17.80
2018-08-07T01:27:49.688Z,18.73
2018-08-07T01:30:28.846Z,17.60
2018-08-07T01:32:57.855Z,19.27
2018-08-07T01:35:27.625Z,18.07
2018-08-07T01:37:56.348Z,18.30
2018-08-07T01:40:25.153Z,17.53
2018-08-07T01:42:53.901Z,18.77
2018-08-07T01:45:22.637Z,19.67
2018-08-07T01:47:51.345Z,18.40
2018-08-07T01:50:20.075Z,17.23
2018-08-07T01:52:48.794Z,18.17
2018-08-07T01:55:25.977Z,15.80
2018-08-07T01:57:54.664Z,15.67
2018-08-07T02:00:23.522Z,17.20
2018-08-07T02:02:52.448Z,16.10
2018-08-07T02:05:21.168Z,17.23
2018-08-07T02:07:49.852Z,16.50
2018-08-07T02:10:19.488Z,18.63
2018-08-07T02:12:48.190Z,17.80
2018-08-07T02:15:17.312Z,17.73
2018-08-07T02:17:46.009Z,18.73
2018-08-07T02:20:15.953Z,18.83
2018-08-07T02:22:45.181Z,19.33
2018-08-07T02:25:16.209Z,18.27
2018-08-07T02:27:45.791Z,19.57
2018-08-07T02:30:15.438Z,19.83
2018-08-07T02:32:44.252Z,17.40
2018-08-07T02:35:14.363Z,16.47
2018-08-07T02:37:44.052Z,16.67
2018-08-07T02:40:14.025Z,17.47
2018-08-07T02:42:43.442Z,15.97
2018-08-07T02:45:15.175Z,15.90
2018-08-07T02:47:44.921Z,16.17
2018-08-07T02:50:16.090Z,15.90
2018-08-07T02:52:44.830Z,16.20
2018-08-07T02:55:13.570Z,20.93
2018-08-07T02:57:42.857Z,16.97
2018-08-07T03:00:16.970Z,18.93
2018-08-07T03:02:46.109Z,17.27
2018-08-07T03:05:14.905Z,16.77
2018-08-07T03:07:44.029Z,17.47
2018-08-07T03:10:12.840Z,17.20
2018-08-07T03:12:41.562Z,17.13
2018-08-07T03:15:15.857Z,17.90
2018-08-07T03:17:45.578Z,19.47
2018-08-07T03:20:14.398Z,18.20
2018-08-07T03:22:43.113Z,17.70
2018-08-07T03:25:12.988Z,18.30
2018-08-07T03:27:42.353Z,18.40
2018-08-07T03:30:13.903Z,16.47
2018-08-07T03:32:42.914Z,17.50
2018-08-07T03:35:11.650Z,20.70
2018-08-07T03:37:40.829Z,19.07
2018-08-07T03:40:12.902Z,16.50
2018-08-07T03:42:41.601Z,22.00
2018-08-07T03:45:12.402Z,17.97
2018-08-07T03:47:41.154Z,15.30
2018-08-07T03:50:10.671Z,16.23
2018-08-07T03:52:39.424Z,14.90
2018-08-07T03:55:11.668Z,15.50
2018-08-07T03:57:41.057Z,14.13
2018-08-07T04:00:16.271Z,12.50
2018-08-07T04:02:45.168Z,13.07
2018-08-07T04:05:13.986Z,11.30
2018-08-07T04:07:42.885Z,11.83
2018-08-07T04:10:13.782Z,10.43
2018-08-07T04:12:42.524Z,10.23
2018-08-07T04:15:13.002Z,12.27
2018-08-07T04:17:42.226Z,10.47
2018-08-07T04:20:13.479Z,9.63
2018-08-07T04:22:42.244Z,8.50
2018-08-07T04:25:11.079Z,11.03
2018-08-07T04:27:39.821Z,9.73
2018-08-07T04:30:10.852Z,7.40
2018-08-07T04:32:39.884Z,8.90
2018-08-07T04:35:08.619Z,8.10
2018-08-07T04:37:37.525Z,8.03
2018-08-07T04:40:07.162Z,8.90
2018-08-07T04:42:39.005Z,7.13
2018-08-07T04:45:12.102Z,7.20
2018-08-07T04:47:40.868Z,7.87
2018-08-07T04:50:10.267Z,8.63
2018-08-07T04:52:39.299Z,7.27
2018-08-07T04:55:08.953Z,6.97
2018-08-07T04:57:37.737Z,8.03
2018-08-07T05:00:10.301Z,7.77
2018-08-07T05:02:39.162Z,8.23
2018-08-07T05:05:14.493Z,7.90
2018-08-07T05:07:43.286Z,9.70
2018-08-07T05:10:14.460Z,7.27
2018-08-07T05:12:44.024Z,5.33
2018-08-07T05:15:13.090Z,7.37
2018-08-07T05:17:42.913Z,7.10
2018-08-07T05:20:11.693Z,7.50
2018-08-07T05:22:40.848Z,8.70
2018-08-07T05:25:11.026Z,9.50
2018-08-07T05:27:39.921Z,8.30
2018-08-07T05:30:10.471Z,9.10
2018-08-07T05:32:39.206Z,9.60
2018-08-07T05:35:08.736Z,10.10
2018-08-07T05:37:37.619Z,9.50
2018-08-07T05:40:06.999Z,10.43
2018-08-07T05:42:35.768Z,11.10
2018-08-07T05:45:05.558Z,8.97
2018-08-07T05:47:34.313Z,15.20
2018-08-07T05:50:03.195Z,12.00
2018-08-07T05:52:31.885Z,10.10
2018-08-07T05:55:00.639Z,6.40
2018-08-07T05:57:29.493Z,6.20
2018-08-07T05:59:58.224Z,5.67
2018-08-07T06:02:26.961Z,5.53
2018-08-07T06:04:56.082Z,6.23
2018-08-07T06:07:24.790Z,5.53
2018-08-07T06:09:53.545Z,6.40
2018-08-07T06:12:22.274Z,5.83
2018-08-07T06:14:51.217Z,5.40
2018-08-07T06:17:20.025Z,5.13
2018-08-07T06:19:48.808Z,4.08
2018-08-07T06:22:17.570Z,5.73
2018-08-07T06:24:46.295Z,4.97
2018-08-07T06:27:15.154Z,5.25
2018-08-07T06:29:43.884Z,5.42
2018-08-07T06:32:12.665Z,4.58
2018-08-07T06:34:41.419Z,5.67
2018-08-07T06:37:10.121Z,4.75
2018-08-07T06:39:38.813Z,5.47
2018-08-07T06:42:07.588Z,4.60
2018-08-07T06:44:39.401Z,5.50
2018-08-07T06:47:08.336Z,5.35
2018-08-07T06:49:37.071Z,4.37
2018-08-07T06:52:05.798Z,4.12
2018-08-07T06:54:34.554Z,4.87
2018-08-07T06:57:03.469Z,4.45
2018-08-07T06:59:32.642Z,4.20
2018-08-07T07:02:01.370Z,5.12
2018-08-07T07:04:30.211Z,5.25
2018-08-07T07:06:58.968Z,4.83
2018-08-07T07:09:27.761Z,4.72
2018-08-07T07:11:56.566Z,5.53
2018-08-07T07:14:25.301Z,4.87
2018-08-07T07:16:54.020Z,4.45
2018-08-07T07:19:22.754Z,5.05
2018-08-07T07:21:51.514Z,5.00
2018-08-07T07:24:20.304Z,5.75
2018-08-07T07:26:49.051Z,4.20
2018-08-07T07:29:17.815Z,5.67
2018-08-07T07:31:46.582Z,4.80
2018-08-07T07:34:15.357Z,4.72
2018-08-07T07:36:44.133Z,4.25
2018-08-07T07:39:12.886Z,4.62
2018-08-07T07:41:41.598Z,5.35
2018-08-07T07:44:10.412Z,5.05
2018-08-07T07:46:39.192Z,4.72
2018-08-07T07:49:08.355Z,4.95
2018-08-07T07:51:37.092Z,5.25
2018-08-07T07:54:05.916Z,4.97
2018-08-07T07:56:34.884Z,5.22
2018-08-07T07:59:03.638Z,5.40
2018-08-07T08:01:32.355Z,5.37
2018-08-07T08:04:01.085Z,5.78
2018-08-07T08:06:30.378Z,5.37
2018-08-07T08:08:59.243Z,5.50
2018-08-07T08:11:29.717Z,4.85
2018-08-07T08:14:00.272Z,6.17
2018-08-07T08:16:31.559Z,5.22
2018-08-07T08:19:04.234Z,5.10
2018-08-07T08:21:35.229Z,6.10
2018-08-07T08:24:06.026Z,6.00
2018-08-07T08:26:37.486Z,5.22
2018-08-07T08:29:09.300Z,5.22
2018-08-07T08:31:40.814Z,5.53
2018-08-07T08:34:12.259Z,4.90
2018-08-07T08:36:44.070Z,6.17
2018-08-07T08:39:18.591Z,5.97
2018-08-07T08:41:50.563Z,5.67
2018-08-07T08:44:22.317Z,5.75
2018-08-07T08:46:51.219Z,5.72
2018-08-07T08:49:20.078Z,5.78
2018-08-07T08:51:48.822Z,5.40
2018-08-07T08:54:17.559Z,5.53
2018-08-07T08:56:46.411Z,5.58
2018-08-07T08:59:15.257Z,5.65
2018-08-07T09:01:43.985Z,5.97
2018-08-07T09:04:12.738Z,4.75
2018-08-07T09:06:41.472Z,5.35
2018-08-07T09:09:12.641Z,5.03
2018-08-07T09:11:41.526Z,5.30
2018-08-07T09:14:11.377Z,5.00
2018-08-07T09:16:40.497Z,5.25
2018-08-07T09:19:09.329Z,4.90
2018-08-07T09:21:38.660Z,4.50
2018-08-07T09:24:07.919Z,5.42
2018-08-07T09:26:36.682Z,4.70
2018-08-07T09:29:05.490Z,4.60
2018-08-07T09:31:34.555Z,5.28
2018-08-07T09:34:03.297Z,4.20
2018-08-07T09:36:32.051Z,5.60
2018-08-07T09:39:00.777Z,5.08
2018-08-07T09:41:29.531Z,4.42
2018-08-07T09:43:58.276Z,5.12
2018-08-07T09:46:27.053Z,5.42
2018-08-07T09:48:55.829Z,3.95
2018-08-07T09:51:24.541Z,4.10
2018-08-07T09:53:53.285Z,4.20
2018-08-07T09:56:22.015Z,3.70
2018-08-07T09:58:50.773Z,4.70
2018-08-07T10:01:24.641Z,3.98
2018-08-07T10:03:53.345Z,3.55
2018-08-07T10:06:22.246Z,4.58
2018-08-07T10:08:50.985Z,4.72
2018-08-07T10:11:19.755Z,4.40
2018-08-07T10:13:48.498Z,4.40
2018-08-07T10:16:17.250Z,4.80
2018-08-07T10:18:45.969Z,4.33
2018-08-07T10:21:14.679Z,4.95
2018-08-07T10:23:43.401Z,5.00
2018-08-07T10:26:12.125Z,5.65
2018-08-07T10:28:40.854Z,4.95
2018-08-07T10:31:09.847Z,6.40
2018-08-07T10:33:38.758Z,4.50
2018-08-07T10:36:07.556Z,4.40
2018-08-07T10:38:36.330Z,4.90
2018-08-07T10:41:05.217Z,4.67
2018-08-07T10:43:33.963Z,4.28
2018-08-07T10:46:02.775Z,4.95
2018-08-07T10:48:31.589Z,5.80
2018-08-07T10:51:00.592Z,3.87
2018-08-07T10:53:29.423Z,4.62
2018-08-07T10:55:58.151Z,4.15
2018-08-07T10:58:26.980Z,4.70
2018-08-07T11:00:55.745Z,4.97
2018-08-07T11:03:24.499Z,4.33
2018-08-07T11:05:53.452Z,5.05
2018-08-07T11:08:22.213Z,4.58
2018-08-07T11:10:51.008Z,3.42
2018-08-07T11:13:19.757Z,4.05
2018-08-07T11:15:48.487Z,5.37
2018-08-07T11:18:17.228Z,4.80
2018-08-07T11:20:45.999Z,5.28
2018-08-07T11:23:14.814Z,5.35
2018-08-07T11:25:43.573Z,5.65
2018-08-07T11:28:12.360Z,6.22
2018-08-07T11:30:41.108Z,4.30
2018-08-07T11:33:09.894Z,5.37
2018-08-07T11:35:38.651Z,4.40
2018-08-07T11:38:07.442Z,4.03
2018-08-07T11:40:36.179Z,4.17
2018-08-07T11:43:04.931Z,3.22
2018-08-07T11:45:34.109Z,3.65
2018-08-07T11:48:03.016Z,4.28
2018-08-07T11:50:32.799Z,3.85
2018-08-07T11:53:02.415Z,4.00
2018-08-07T11:55:31.601Z,4.20
2018-08-07T11:58:00.830Z,4.65
2018-08-07T12:00:32.482Z,3.62
2018-08-07T12:03:01.303Z,4.12
2018-08-07T12:05:30.080Z,4.50
2018-08-07T12:07:58.914Z,3.95
2018-08-07T12:10:27.718Z,3.50
2018-08-07T12:12:56.472Z,4.20
2018-08-07T12:15:25.965Z,3.10
2018-08-07T12:17:54.958Z,3.90
2018-08-07T12:20:23.742Z,3.70
2018-08-07T12:22:52.938Z,4.28
2018-08-07T12:25:21.934Z,4.40
2018-08-07T12:27:50.990Z,4.12
2018-08-07T12:37:07.892Z,3.98
2018-08-07T12:39:36.685Z,4.10
2018-08-07T12:42:05.552Z,3.67
2018-08-07T12:44:34.369Z,3.83
2018-08-07T12:47:03.227Z,3.55
2018-08-07T12:49:32.091Z,4.00
2018-08-07T12:52:00.809Z,4.05
2018-08-07T12:54:29.622Z,3.60
2018-08-07T12:56:58.354Z,3.75
2018-08-07T12:59:28.093Z,4.58
2018-08-07T13:01:57.088Z,4.75
2018-08-07T13:04:25.878Z,4.90
2018-08-07T13:06:54.695Z,5.10
2018-08-07T13:09:23.600Z,5.42
2018-08-07T13:11:52.565Z,4.87
2018-08-07T13:14:21.401Z,5.30
2018-08-07T13:16:50.206Z,5.25
2018-08-07T13:19:19.031Z,6.00
2018-08-07T13:21:47.816Z,5.87
2018-08-07T13:24:16.566Z,5.50
2018-08-07T13:26:45.311Z,5.33
2018-08-07T13:29:14.055Z,5.77
2018-08-07T13:31:42.858Z,5.53
2018-08-07T13:34:11.660Z,5.73
2018-08-07T13:36:40.491Z,7.10
2018-08-07T13:39:10.565Z,5.80
2018-08-07T13:41:39.321Z,5.20
2018-08-07T13:44:08.807Z,5.07
2018-08-07T13:46:37.703Z,5.60
2018-08-07T13:49:06.865Z,5.67
2018-08-07T13:51:35.641Z,6.42
2018-08-07T13:54:04.448Z,5.60
2018-08-07T13:56:33.239Z,5.73
2018-08-07T13:59:02.076Z,6.43
2018-08-07T14:01:31.372Z,5.63
2018-08-07T14:04:00.107Z,5.90
2018-08-07T14:06:28.877Z,5.37
2018-08-07T14:08:57.791Z,6.63
2018-08-07T14:11:26.569Z,5.80
2018-08-07T14:13:55.467Z,4.90
2018-08-07T14:16:24.739Z,4.77
2018-08-07T14:18:53.772Z,4.97
2018-08-07T14:21:22.993Z,5.33
2018-08-07T14:23:52.309Z,5.40
2018-08-07T14:26:21.366Z,5.50
2018-08-07T14:28:50.390Z,5.00
2018-08-07T14:31:19.594Z,5.50
2018-08-07T14:33:48.816Z,5.30
2018-08-07T14:36:18.089Z,5.70
2018-08-07T14:38:47.358Z,5.57
2018-08-07T14:41:16.693Z,5.73
2018-08-07T14:43:45.963Z,6.00
2018-08-07T14:46:15.603Z,6.77
2018-08-07T14:48:44.875Z,6.23
2018-08-07T14:51:14.232Z,5.80
2018-08-07T14:53:42.997Z,5.80
2018-08-07T14:56:11.755Z,7.97
2018-08-07T14:58:40.840Z,8.30
2018-08-07T15:01:09.587Z,6.37
2018-08-07T15:03:38.342Z,5.50
2018-08-07T15:06:07.090Z,6.03
2018-08-07T15:08:35.826Z,6.90
2018-08-07T15:11:04.759Z,6.20
2018-08-07T15:13:33.520Z,6.20
2018-08-07T15:16:02.252Z,7.97
2018-08-07T15:18:30.992Z,7.90
2018-08-07T15:20:59.730Z,6.77
2018-08-07T15:23:28.495Z,6.50
2018-08-07T15:25:57.211Z,7.57
2018-08-07T15:28:25.906Z,7.60
2018-08-07T15:30:54.868Z,6.67
2018-08-07T15:33:23.586Z,6.30
2018-08-07T15:35:52.350Z,6.40
2018-08-07T15:38:21.891Z,7.13
2018-08-07T15:40:50.582Z,7.50
2018-08-07T15:43:19.282Z,7.00
2018-08-07T15:45:49.809Z,6.93
2018-08-07T15:48:18.613Z,7.23
2018-08-07T15:50:47.354Z,6.90
2018-08-07T15:53:16.101Z,8.53
2018-08-07T15:55:44.856Z,5.67
2018-08-07T15:58:13.641Z,7.17
2018-08-07T16:00:43.624Z,8.13
2018-08-07T16:03:13.074Z,6.60
2018-08-07T16:05:41.818Z,6.90
2018-08-07T16:08:10.544Z,6.97
2018-08-07T16:10:39.267Z,6.87
2018-08-07T16:13:08.058Z,6.77
2018-08-07T16:15:36.822Z,6.90
2018-08-07T16:18:06.645Z,6.83
2018-08-07T16:20:35.398Z,7.80
2018-08-07T16:23:04.117Z,6.40
2018-08-07T16:25:32.982Z,7.80
2018-08-07T16:28:01.715Z,8.83
2018-08-07T16:30:30.519Z,7.80
2018-08-07T16:32:59.294Z,7.43
2018-08-07T16:35:28.107Z,6.87
2018-08-07T16:37:56.868Z,7.93
2018-08-07T16:40:25.961Z,6.90
2018-08-07T16:42:55.173Z,7.27
2018-08-07T16:45:24.784Z,7.00
2018-08-07T16:47:56.750Z,7.57
2018-08-07T16:50:29.808Z,8.20
2018-08-07T16:53:01.473Z,8.73
2018-08-07T16:55:34.224Z,7.10
2018-08-07T16:58:03.132Z,8.37
2018-08-07T17:00:32.029Z,12.27
2018-08-07T17:03:00.787Z,10.57
2018-08-07T17:05:29.564Z,8.13
2018-08-07T17:07:58.392Z,7.70
2018-08-07T17:10:29.095Z,7.80
2018-08-07T17:12:57.881Z,6.93
2018-08-07T17:15:26.658Z,7.60
2018-08-07T17:17:55.461Z,7.60
2018-08-07T17:20:24.308Z,9.03
2018-08-07T17:22:53.594Z,7.30
2018-08-07T17:25:23.216Z,6.70
2018-08-07T17:27:52.076Z,8.17
2018-08-07T17:30:22.503Z,7.60
2018-08-07T17:32:51.297Z,7.50
2018-08-07T17:35:21.450Z,10.27
2018-08-07T17:37:51.613Z,7.53
2018-08-07T17:40:21.738Z,8.83
2018-08-07T17:42:50.469Z,8.23
2018-08-07T17:45:19.643Z,8.80
2018-08-07T17:47:48.542Z,9.43
2018-08-07T17:50:18.917Z,7.23
2018-08-07T17:52:47.696Z,6.83
2018-08-07T17:55:16.628Z,10.47
2018-08-07T17:57:45.565Z,9.30
2018-08-07T18:00:18.949Z,6.70
2018-08-07T18:02:47.699Z,8.00
2018-08-07T18:05:16.575Z,7.27
2018-08-07T18:07:47.061Z,8.07
2018-08-07T18:10:17.394Z,8.37
2018-08-07T18:12:46.253Z,7.17
2018-08-07T18:15:16.403Z,8.27
2018-08-07T18:17:49.793Z,7.80
2018-08-07T18:20:21.666Z,7.50
2018-08-07T18:22:51.636Z,8.90
2018-08-07T18:25:20.397Z,6.73
2018-08-07T18:27:49.191Z,6.73
2018-08-07T18:30:21.907Z,8.00
2018-08-07T18:32:50.669Z,7.30
2018-08-07T18:35:22.706Z,8.27
2018-08-07T18:37:51.521Z,8.30
2018-08-07T18:40:20.407Z,8.67
2018-08-07T18:42:49.630Z,8.17
2018-08-07T18:45:18.343Z,9.00
2018-08-07T18:47:47.498Z,8.70
2018-08-07T18:50:18.041Z,8.43
2018-08-07T18:52:46.757Z,7.33
2018-08-07T18:55:15.778Z,8.83
2018-08-07T18:57:45.547Z,7.97
2018-08-07T19:00:17.188Z,8.03
2018-08-07T19:02:45.936Z,9.03
2018-08-07T19:05:18.094Z,9.80
2018-08-07T19:07:46.890Z,9.30
2018-08-07T19:10:15.952Z,8.87
2018-08-07T19:12:45.561Z,8.90
2018-08-07T19:15:21.833Z,8.90
2018-08-07T19:17:50.691Z,8.30
2018-08-07T19:20:21.043Z,9.67
2018-08-07T19:22:50.289Z,8.93
2018-08-07T19:25:19.677Z,8.77
2018-08-07T19:27:48.491Z,8.70
2018-08-07T19:30:18.738Z,9.30
2018-08-07T19:32:47.453Z,9.60
2018-08-07T19:35:16.237Z,10.00
2018-08-07T19:37:45.002Z,11.97
2018-08-07T19:40:15.481Z,9.60
2018-08-07T19:42:45.057Z,8.73
2018-08-07T19:45:14.232Z,10.70
2018-08-07T19:47:43.664Z,10.73
2018-08-07T19:50:13.797Z,9.63
2018-08-07T19:52:42.649Z,8.30
2018-08-07T19:55:15.859Z,9.27
2018-08-07T19:57:44.956Z,9.70
2018-08-07T20:00:21.271Z,10.70
2018-08-07T20:02:50.550Z,9.60
2018-08-07T20:05:19.367Z,9.63
2018-08-07T20:07:48.428Z,9.20
2018-08-07T20:10:18.024Z,10.50
2018-08-07T20:12:47.369Z,9.00
2018-08-07T20:15:21.961Z,9.13
2018-08-07T20:17:51.269Z,8.00
2018-08-07T20:20:20.322Z,10.60
2018-08-07T20:22:49.097Z,10.00
2018-08-07T20:25:18.081Z,10.67
2018-08-07T20:27:46.872Z,9.60
2018-08-07T20:30:18.195Z,11.60
2018-08-07T20:32:47.864Z,10.30
2018-08-07T20:35:16.592Z,10.87
2018-08-07T20:37:45.489Z,10.10
2018-08-07T20:40:18.531Z,10.33
2018-08-07T20:42:47.613Z,11.60
2018-08-07T20:45:16.876Z,11.03
2018-08-07T20:47:45.611Z,11.40
2018-08-07T20:50:16.869Z,11.13
2018-08-07T20:52:46.141Z,11.43
2018-08-07T20:55:15.268Z,12.33
2018-08-07T20:57:44.098Z,13.57
2018-08-07T21:00:17.149Z,13.07
2018-08-07T21:02:46.046Z,13.00
2018-08-07T21:05:14.903Z,12.00
2018-08-07T21:07:43.875Z,13.37
2018-08-07T21:10:14.596Z,13.47
2018-08-07T21:12:43.712Z,12.83
2018-08-07T21:15:13.168Z,14.97
2018-08-07T21:17:42.060Z,14.47
2018-08-07T21:20:14.594Z,13.53
2018-08-07T21:22:43.579Z,13.80
2018-08-07T21:25:14.906Z,12.20
2018-08-07T21:27:44.260Z,14.00
2018-08-07T21:30:15.995Z,13.33
2018-08-07T21:32:44.850Z,14.37
2018-08-07T21:35:13.753Z,12.33
2018-08-07T21:37:42.755Z,13.93
2018-08-07T21:40:19.148Z,13.60
2018-08-07T21:42:48.527Z,13.93
2018-08-07T21:45:17.503Z,15.20
2018-08-07T21:47:46.496Z,13.87
2018-08-07T21:50:17.099Z,14.17
2018-08-07T21:52:45.960Z,13.67
2018-08-07T21:55:16.059Z,14.10
2018-08-07T21:57:44.964Z,14.33
2018-08-07T22:00:18.198Z,15.23
2018-08-07T22:02:47.596Z,14.13
2018-08-07T22:05:16.423Z,13.77
2018-08-07T22:07:45.194Z,14.10
2018-08-07T22:10:16.645Z,14.20
2018-08-07T22:12:45.771Z,15.53
2018-08-07T22:15:15.383Z,13.60
2018-08-07T22:17:44.763Z,16.40
2018-08-07T22:20:14.254Z,14.40
2018-08-07T22:22:43.182Z,15.53
2018-08-07T22:25:12.110Z,15.63
2018-08-07T22:27:40.982Z,13.50
2018-08-07T22:30:12.692Z,15.70
2018-08-07T22:32:41.503Z,14.20
2018-08-07T22:35:10.438Z,14.57
2018-08-07T22:37:39.821Z,17.30
2018-08-07T22:40:09.276Z,16.67
2018-08-07T22:42:38.148Z,16.47
2018-08-07T22:45:09.099Z,17.07
2018-08-07T22:47:37.970Z,16.87
2018-08-07T22:50:07.664Z,14.20
2018-08-07T22:52:36.424Z,15.00
2018-08-07T22:55:05.915Z,16.17
2018-08-07T22:57:34.668Z,14.00
2018-08-07T23:00:03.453Z,15.37
2018-08-07T23:02:32.169Z,16.70
2018-08-07T23:05:00.888Z,14.90
2018-08-07T23:07:29.630Z,16.43
2018-08-07T23:09:58.322Z,15.93
2018-08-07T23:12:27.024Z,15.40
2018-08-07T23:14:55.795Z,15.57
2018-08-07T23:17:24.522Z,15.73
2018-08-07T23:19:53.269Z,18.23
2018-08-07T23:22:21.998Z,15.70
2018-08-07T23:24:50.744Z,16.47
2018-08-07T23:27:19.742Z,16.07
2018-08-07T23:29:48.481Z,16.10
2018-08-07T23:32:17.244Z,16.17
2018-08-07T23:34:46.006Z,16.53
2018-08-07T23:37:14.776Z,18.27
2018-08-07T23:39:43.566Z,15.60
2018-08-07T23:42:12.332Z,16.80
2018-08-07T23:44:41.225Z,15.67
2018-08-07T23:47:10.161Z,17.57
2018-08-07T23:49:38.902Z,17.17
2018-08-07T23:52:07.753Z,15.83
2018-08-07T23:54:36.499Z,16.40
2018-08-07T23:57:05.242Z,16.07
2018-08-07T23:59:33.987Z,17.70
